Time;durP1;ratioP1;P1;durP2;ratioP2;P2;SDS_P1;SDS_P2;PMS_P1;PMS_P2;Temp;Humidity;BMP_temperature;BMP_pressure;BME280_temperature;BME280_humidity;BME280_pressure;Samples;Min_cycle;Max_cycle;Signal;HPM_P1;HPM_P2
2021/04/22 00:02:01;;;;;;;;;;;7.60;99.90;;;;;;10409739;28;20393;-69
2021/04/22 00:07:02;;;;;;;;;;;7.60;99.90;;;;;;10408821;28;19933;-69
2021/04/22 00:12:07;;;;;;;;;;;7.50;99.90;;;;;;10408503;28;19971;-70
2021/04/22 00:17:09;;;;;;;;;;;7.50;99.90;;;;;;10408995;28;19929;-69
2021/04/22 00:22:10;;;;;;;;;;;7.40;99.90;;;;;;10408726;28;20278;-69
2021/04/22 00:27:12;;;;;;;;;;;7.30;99.90;;;;;;10409202;28;20023;-70
2021/04/22 00:32:15;;;;;;;;;;;7.10;99.90;;;;;;10408058;28;20032;-69
2021/04/22 00:37:16;;;;;;;;;;;7.00;99.90;;;;;;10408574;28;19933;-70
2021/04/22 00:42:18;;;;;;;;;;;7.00;99.90;;;;;;10407794;28;19932;-69
2021/04/22 00:47:19;;;;;;;;;;;6.90;99.90;;;;;;10406895;28;19972;-69
2021/04/22 00:52:21;;;;;;;;;;;6.80;99.90;;;;;;10406419;28;20325;-69
2021/04/22 00:57:22;;;;;;;;;;;6.80;99.90;;;;;;10406983;28;20015;-69
2021/04/22 01:02:23;;;;;;;;;;;6.70;99.90;;;;;;10407206;28;20015;-70
2021/04/22 01:07:25;;;;;;;;;;;6.70;99.90;;;;;;10407911;28;19929;-69
2021/04/22 01:12:26;;;;;;;;;;;6.60;99.90;;;;;;10406040;28;19932;-69
2021/04/22 01:17:27;;;;;;;;;;;6.50;99.90;;;;;;10406119;28;19929;-69
2021/04/22 01:22:29;;;;;;;;;;;6.40;99.90;;;;;;10406541;28;19940;-69
2021/04/22 01:27:30;;;;;;;;;;;6.30;99.90;;;;;;10406376;28;20016;-69
2021/04/22 01:32:31;;;;;;;;;;;6.20;99.90;;;;;;10405764;28;19925;-69
2021/04/22 01:37:33;;;;;;;;;;;6.10;99.90;;;;;;10406129;28;19933;-69
2021/04/22 01:42:34;;;;;;;;;;;6.10;99.90;;;;;;10405223;28;19955;-69
2021/04/22 01:47:36;;;;;;;;;;;6.10;99.90;;;;;;10406578;28;20350;-69
2021/04/22 01:52:38;;;;;;;;;;;5.90;99.90;;;;;;10406214;28;19971;-69
2021/04/22 01:57:39;;;;;;;;;;;5.90;99.90;;;;;;10405012;28;20023;-69
2021/04/22 02:02:41;;;;;;;;;;;5.60;99.90;;;;;;10408640;28;20008;-69
2021/04/22 02:07:42;;;;;;;;;;;5.50;99.90;;;;;;10412406;28;19931;-69
2021/04/22 02:12:44;;;;;;;;;;;5.40;99.90;;;;;;10411916;28;20336;-69
2021/04/22 02:17:45;;;;;;;;;;;5.40;99.90;;;;;;10410995;28;19972;-69
2021/04/22 02:22:47;;;;;;;;;;;5.30;99.90;;;;;;10411788;28;19975;-69
2021/04/22 02:27:49;;;;;;;;;;;5.20;99.90;;;;;;10411147;28;20333;-69
2021/04/22 02:32:50;;;;;;;;;;;5.10;99.90;;;;;;10412266;28;20043;-69
2021/04/22 02:37:52;;;;;;;;;;;5.20;99.90;;;;;;10411167;28;20361;-69
2021/04/22 02:42:55;;;;;;;;;;;5.20;99.90;;;;;;10410719;28;20459;-69
2021/04/22 02:47:57;;;;;;;;;;;5.10;99.90;;;;;;10409944;28;19980;-68
2021/04/22 02:52:58;;;;;;;;;;;5.00;99.90;;;;;;10411329;28;19968;-69
2021/04/22 02:58:00;;;;;;;;;;;4.90;99.90;;;;;;10409977;28;19925;-68
2021/04/22 03:03:01;;;;;;;;;;;4.80;99.90;;;;;;10407305;28;20016;-69
2021/04/22 03:08:04;;;;;;;;;;;4.80;99.90;;;;;;10407609;28;19925;-69
2021/04/22 03:13:05;;;;;;;;;;;4.70;99.90;;;;;;10411329;28;19965;-69
2021/04/22 03:18:06;;;;;;;;;;;4.80;99.90;;;;;;10410538;28;20404;-69
2021/04/22 03:23:08;;;;;;;;;;;4.70;99.90;;;;;;10411065;28;19929;-68
2021/04/22 03:28:09;;;;;;;;;;;4.70;99.90;;;;;;10410558;28;20024;-69
2021/04/22 03:33:11;;;;;;;;;;;4.60;99.90;;;;;;10409713;28;20361;-69
2021/04/22 03:38:12;;;;;;;;;;;4.40;99.90;;;;;;10410946;28;20007;-68
2021/04/22 03:43:14;;;;;;;;;;;4.30;99.90;;;;;;10410201;28;19929;-69
2021/04/22 03:48:15;;;;;;;;;;;4.20;99.90;;;;;;10410002;28;20012;-68
2021/04/22 03:53:16;;;;;;;;;;;4.10;99.90;;;;;;10410608;28;20385;-68
2021/04/22 03:58:17;;;;;;;;;;;4.00;99.90;;;;;;10409693;28;20349;-69
2021/04/22 04:03:19;;;;;;;;;;;4.00;99.90;;;;;;10409505;28;20481;-68
2021/04/22 04:08:20;;;;;;;;;;;4.00;99.90;;;;;;10409433;28;19991;-69
2021/04/22 04:13:22;;;;;;;;;;;4.00;99.90;;;;;;10407279;28;20047;-69
2021/04/22 04:18:23;;;;;;;;;;;3.90;99.90;;;;;;10408983;28;20019;-69
2021/04/22 04:23:25;;;;;;;;;;;3.80;99.90;;;;;;10409264;28;19929;-69
2021/04/22 04:28:26;;;;;;;;;;;3.80;99.90;;;;;;10407900;28;19925;-69
2021/04/22 04:33:27;;;;;;;;;;;3.90;99.90;;;;;;10408933;28;19979;-69
2021/04/22 04:38:29;;;;;;;;;;;3.90;99.90;;;;;;10408568;28;20024;-69
2021/04/22 04:43:30;;;;;;;;;;;3.90;99.90;;;;;;10407456;28;20403;-69
2021/04/22 04:48:31;;;;;;;;;;;4.00;99.90;;;;;;10399826;28;19925;-69
2021/04/22 04:53:33;;;;;;;;;;;4.10;99.90;;;;;;10408233;28;19929;-70
2021/04/22 04:58:34;;;;;;;;;;;4.20;99.90;;;;;;10407086;28;19925;-69
2021/04/22 05:03:35;;;;;;;;;;;4.20;99.90;;;;;;10407074;28;19932;-69
2021/04/22 05:08:36;;;;;;;;;;;4.30;99.90;;;;;;10406949;28;19951;-69
2021/04/22 05:13:38;;;;;;;;;;;4.30;99.90;;;;;;10406614;28;19926;-69
2021/04/22 05:18:39;;;;;;;;;;;4.30;99.90;;;;;;10405400;28;20415;-69
2021/04/22 05:23:41;;;;;;;;;;;4.40;99.90;;;;;;10418571;28;20011;-69
2021/04/22 05:28:42;;;;;;;;;;;4.40;99.90;;;;;;10409491;28;19925;-69
2021/04/22 05:33:44;;;;;;;;;;;4.40;99.90;;;;;;10429519;28;19972;-69
2021/04/22 05:38:46;;;;;;;;;;;4.60;99.90;;;;;;10388646;28;19932;-69
2021/04/22 05:43:48;;;;;;;;;;;4.70;99.90;;;;;;10403823;28;19925;-69
2021/04/22 05:48:49;;;;;;;;;;;4.90;99.90;;;;;;10403812;28;19977;-69
2021/04/22 05:53:52;;;;;;;;;;;5.00;99.90;;;;;;10395964;28;19998;-69
2021/04/22 05:58:53;;;;;;;;;;;5.20;99.90;;;;;;10399605;28;20028;-69
2021/04/22 06:03:55;;;;;;;;;;;5.20;99.90;;;;;;10400263;28;20158;-69
2021/04/22 06:08:56;;;;;;;;;;;5.30;99.90;;;;;;10395500;28;19925;-69
2021/04/22 06:13:57;;;;;;;;;;;5.40;99.90;;;;;;10396316;28;19931;-69
2021/04/22 06:18:59;;;;;;;;;;;5.40;99.90;;;;;;10392130;28;19979;-69
2021/04/22 06:24:00;;;;;;;;;;;5.40;99.90;;;;;;10399306;28;19932;-69
2021/04/22 06:29:04;;;;;;;;;;;5.50;99.90;;;;;;10389829;28;19965;-69
2021/04/22 06:34:05;;;;;;;;;;;5.50;99.70;;;;;;10397602;28;19933;-69
2021/04/22 06:39:07;;;;;;;;;;;5.60;97.00;;;;;;10391361;28;20023;-69
2021/04/22 06:44:08;;;;;;;;;;;5.80;97.00;;;;;;10398833;28;20381;-69
2021/04/22 06:49:09;;;;;;;;;;;5.90;96.10;;;;;;10408657;28;19933;-69
2021/04/22 06:54:11;;;;;;;;;;;6.00;94.10;;;;;;10412212;28;19925;-70
2021/04/22 06:59:12;;;;;;;;;;;6.20;95.30;;;;;;10408691;28;20386;-69
2021/04/22 07:04:14;;;;;;;;;;;6.00;91.90;;;;;;10410261;28;19931;-70
2021/04/22 07:09:16;;;;;;;;;;;6.20;92.80;;;;;;10409393;28;20020;-69
2021/04/22 07:14:17;;;;;;;;;;;6.50;90.30;;;;;;10410980;28;19999;-69
2021/04/22 07:19:18;;;;;;;;;;;6.30;84.60;;;;;;10410804;28;20028;-69
2021/04/22 07:24:20;;;;;;;;;;;6.40;85.60;;;;;;10410446;28;19925;-70
2021/04/22 07:29:21;;;;;;;;;;;6.80;82.00;;;;;;10409595;28;19925;-69
2021/04/22 07:34:22;;;;;;;;;;;7.10;80.60;;;;;;10410730;28;20040;-70
2021/04/22 07:39:24;;;;;;;;;;;7.80;77.20;;;;;;10410689;28;20016;-70
2021/04/22 07:44:25;;;;;;;;;;;8.50;73.70;;;;;;10410451;28;19967;-70
2021/04/22 07:49:26;;;;;;;;;;;8.80;69.60;;;;;;10409744;28;19925;-70
2021/04/22 07:54:28;;;;;;;;;;;8.80;69.00;;;;;;10409683;28;19972;-70
2021/04/22 07:59:29;;;;;;;;;;;9.40;66.30;;;;;;10409766;28;19984;-70
2021/04/22 08:04:30;;;;;;;;;;;9.80;64.30;;;;;;10409896;28;19976;-70
2021/04/22 08:09:33;;;;;;;;;;;9.60;59.60;;;;;;10410093;28;20277;-70
2021/04/22 08:14:35;;;;;;;;;;;9.60;61.50;;;;;;10408373;28;20060;-70
2021/04/22 08:19:36;;;;;;;;;;;10.10;59.50;;;;;;10408784;28;20391;-70
2021/04/22 08:24:38;;;;;;;;;;;10.40;60.50;;;;;;10409554;28;19980;-70
2021/04/22 08:29:39;;;;;;;;;;;10.50;56.70;;;;;;10407529;28;19963;-70
2021/04/22 08:34:40;;;;;;;;;;;10.70;57.60;;;;;;10409167;28;20014;-70
2021/04/22 08:39:41;;;;;;;;;;;11.00;56.80;;;;;;10409584;28;19932;-70
2021/04/22 08:44:43;;;;;;;;;;;11.00;56.60;;;;;;10407253;28;20023;-70
2021/04/22 08:49:45;;;;;;;;;;;11.00;55.00;;;;;;10407310;28;19983;-70
2021/04/22 08:54:46;;;;;;;;;;;11.10;56.40;;;;;;10395624;28;20012;-70
2021/04/22 08:59:52;;;;;;;;;;;11.10;54.30;;;;;;10410321;28;19952;-61
2021/04/22 09:04:54;;;;;;;;;;;11.10;52.40;;;;;;10376343;28;20008;-61
2021/04/22 09:09:56;;;;;;;;;;;11.50;52.40;;;;;;10428998;28;20027;-61
2021/04/22 09:14:59;;;;;;;;;;;11.50;49.90;;;;;;10408049;28;20011;-61
2021/04/22 09:20:00;;;;;;;;;;;11.40;49.20;;;;;;10424732;28;19929;-61
2021/04/22 09:25:12;;;;;;;;;;;11.80;49.40;;;;;;10418716;28;20377;-61
2021/04/22 09:30:15;;;;;;;;;;;11.70;47.50;;;;;;10423346;28;20023;-61
2021/04/22 09:35:16;;;;;;;;;;;11.40;48.60;;;;;;10443321;28;19972;-61
2021/04/22 09:40:20;;;;;;;;;;;11.50;48.40;;;;;;10434089;28;20387;-61
2021/04/22 09:45:23;;;;;;;;;;;11.80;48.60;;;;;;10403987;28;20027;-61
2021/04/22 09:50:33;;;;;;;;;;;12.00;48.00;;;;;;10398093;28;19933;-61
2021/04/22 09:55:36;;;;;;;;;;;11.70;47.20;;;;;;10404436;28;19925;-61
2021/04/22 10:00:37;;;;;;;;;;;11.90;48.30;;;;;;10398063;28;20381;-61
2021/04/22 10:05:40;;;;;;;;;;;12.20;48.40;;;;;;10402650;28;20269;-61
2021/04/22 10:11:02;;;;;;;;;;;12.20;47.30;;;;;;10403763;28;19932;-61
2021/04/22 10:16:03;;;;;;;;;;;12.00;48.20;;;;;;10402453;28;19929;-61
2021/04/22 10:21:05;;;;;;;;;;;12.10;47.30;;;;;;10408941;28;19968;-61
2021/04/22 10:26:25;;;;;;;;;;;12.30;47.50;;;;;;10400422;28;19929;-61
2021/04/22 10:31:27;;;;;;;;;;;12.10;48.40;;;;;;10398906;28;20016;-61
2021/04/22 10:36:31;;;;;;;;;;;12.30;46.30;;;;;;10420420;28;20425;-61
2021/04/22 10:41:35;;;;;;;;;;;12.20;48.00;;;;;;10401297;28;19960;-61
2021/04/22 10:46:39;;;;;;;;;;;12.20;47.60;;;;;;10401520;28;19931;-61
2021/04/22 10:51:40;;;;;;;;;;;12.40;45.10;;;;;;10399650;28;19929;-60
2021/04/22 10:56:42;;;;;;;;;;;12.20;46.40;;;;;;10399711;28;19925;-61
2021/04/22 11:01:43;;;;;;;;;;;11.90;46.00;;;;;;10400458;28;20370;-61
2021/04/22 11:06:45;;;;;;;;;;;12.10;47.00;;;;;;10401436;28;19925;-61
2021/04/22 11:11:55;;;;;;;;;;;12.30;47.70;;;;;;10400921;28;20024;-61
2021/04/22 11:16:57;;;;;;;;;;;12.40;47.30;;;;;;10379787;28;19976;-61
2021/04/22 11:22:00;;;;;;;;;;;12.50;47.70;;;;;;10400774;28;19932;-61
2021/04/22 11:27:08;;;;;;;;;;;12.40;48.00;;;;;;10408540;28;20056;-61
2021/04/22 11:32:16;;;;;;;;;;;12.30;47.90;;;;;;10399737;28;19929;-61
2021/04/22 11:37:19;;;;;;;;;;;12.20;45.80;;;;;;10395979;28;20469;-61
2021/04/22 11:42:20;;;;;;;;;;;12.20;46.40;;;;;;10398529;28;20004;-61
2021/04/22 11:47:24;;;;;;;;;;;12.50;46.20;;;;;;10404107;28;20020;-61
2021/04/22 11:52:26;;;;;;;;;;;12.50;46.90;;;;;;10403340;28;20429;-60
2021/04/22 11:57:28;;;;;;;;;;;12.70;46.40;;;;;;10406142;28;20445;-61
2021/04/22 12:02:32;;;;;;;;;;;12.60;47.20;;;;;;10400871;28;19935;-61
2021/04/22 12:07:33;;;;;;;;;;;12.70;46.80;;;;;;10399786;28;19933;-61
2021/04/22 12:12:35;;;;;;;;;;;12.70;46.10;;;;;;10393733;28;19968;-61
2021/04/22 12:17:37;;;;;;;;;;;12.70;47.30;;;;;;10399551;28;20022;-61
2021/04/22 12:22:39;;;;;;;;;;;12.90;46.60;;;;;;10394243;28;19925;-61
2021/04/22 12:27:51;;;;;;;;;;;13.10;45.20;;;;;;10406699;28;19971;-61
2021/04/22 12:32:52;;;;;;;;;;;13.20;44.10;;;;;;10406876;28;19925;-61
2021/04/22 12:37:54;;;;;;;;;;;13.30;44.80;;;;;;10406198;28;20333;-61
2021/04/22 12:42:59;;;;;;;;;;;13.30;44.20;;;;;;10405166;28;19971;-61
2021/04/22 12:48:01;;;;;;;;;;;13.40;44.60;;;;;;10396301;28;20469;-61
2021/04/22 12:53:08;;;;;;;;;;;13.50;43.10;;;;;;10403792;28;19929;-61
2021/04/22 12:58:10;;;;;;;;;;;13.50;42.20;;;;;;10412903;28;20011;-61
2021/04/22 13:03:13;;;;;;;;;;;13.40;42.50;;;;;;10436149;28;19932;-61
2021/04/22 13:08:15;;;;;;;;;;;13.60;42.40;;;;;;10409155;28;20007;-61
2021/04/22 13:13:16;;;;;;;;;;;13.50;41.60;;;;;;10405912;28;20020;-61
2021/04/22 13:18:18;;;;;;;;;;;13.50;41.20;;;;;;10405894;28;20032;-61
2021/04/22 13:23:32;;;;;;;;;;;13.40;41.10;;;;;;10405581;28;20115;-61
2021/04/22 13:28:33;;;;;;;;;;;13.40;42.60;;;;;;10404713;28;19991;-61
2021/04/22 13:33:34;;;;;;;;;;;13.60;42.20;;;;;;10406806;28;20027;-61
2021/04/22 13:38:36;;;;;;;;;;;13.50;42.80;;;;;;10405884;28;19995;-61
2021/04/22 13:43:38;;;;;;;;;;;13.40;43.30;;;;;;10405677;28;19960;-61
2021/04/22 13:48:39;;;;;;;;;;;13.40;42.50;;;;;;10405673;28;20036;-61
2021/04/22 13:53:41;;;;;;;;;;;13.40;43.10;;;;;;10405436;28;19979;-61
2021/04/22 13:58:43;;;;;;;;;;;13.60;43.20;;;;;;10403769;28;20365;-61
2021/04/22 14:03:45;;;;;;;;;;;13.60;43.40;;;;;;10404944;28;19934;-61
2021/04/22 14:08:56;;;;;;;;;;;13.50;42.30;;;;;;10405534;28;19933;-61
2021/04/22 14:13:57;;;;;;;;;;;13.60;43.50;;;;;;10403093;28;19975;-61
2021/04/22 14:18:59;;;;;;;;;;;13.60;42.10;;;;;;10404570;28;20020;-61
2021/04/22 14:24:03;;;;;;;;;;;13.50;42.30;;;;;;10404631;28;19925;-61
2021/04/22 14:29:06;;;;;;;;;;;13.60;43.10;;;;;;10404208;28;20012;-61
2021/04/22 14:34:08;;;;;;;;;;;13.60;42.40;;;;;;10404421;28;20365;-61
2021/04/22 14:39:10;;;;;;;;;;;13.80;42.90;;;;;;10404081;28;20367;-62
2021/04/22 14:44:13;;;;;;;;;;;14.10;43.00;;;;;;10403446;28;19929;-61
2021/04/22 14:49:14;;;;;;;;;;;14.10;42.30;;;;;;10403948;28;20385;-61
2021/04/22 14:54:16;;;;;;;;;;;14.00;42.50;;;;;;10404692;28;19964;-61
2021/04/22 14:59:19;;;;;;;;;;;14.10;41.60;;;;;;10402536;28;19976;-61
2021/04/22 15:04:20;;;;;;;;;;;13.90;42.20;;;;;;10396770;28;20660;-61
2021/04/22 15:09:21;;;;;;;;;;;14.00;42.00;;;;;;10410739;28;20016;-63
2021/04/22 15:14:23;;;;;;;;;;;14.00;41.00;;;;;;10409886;28;19972;-63
2021/04/22 15:19:24;;;;;;;;;;;13.80;42.60;;;;;;10411470;28;20046;-63
2021/04/22 15:24:25;;;;;;;;;;;13.60;42.50;;;;;;10411155;28;20023;-63
2021/04/22 15:29:26;;;;;;;;;;;13.90;42.70;;;;;;10411006;28;20031;-62
2021/04/22 15:34:28;;;;;;;;;;;14.00;42.60;;;;;;10403643;28;20020;-62
2021/04/22 15:39:29;;;;;;;;;;;14.10;42.40;;;;;;10410381;28;20032;-62
2021/04/22 15:44:31;;;;;;;;;;;14.10;41.50;;;;;;10409356;28;19926;-62
2021/04/22 15:49:32;;;;;;;;;;;13.90;41.50;;;;;;10408494;28;19936;-61
2021/04/22 15:54:34;;;;;;;;;;;14.00;43.00;;;;;;10410578;28;19929;-62
2021/04/22 15:59:35;;;;;;;;;;;14.00;41.50;;;;;;10409773;28;19925;-61
2021/04/22 16:04:37;;;;;;;;;;;13.80;42.00;;;;;;10409700;28;19936;-61
2021/04/22 16:09:38;;;;;;;;;;;13.80;42.20;;;;;;10410296;28;20285;-61
2021/04/22 16:14:40;;;;;;;;;;;13.80;42.90;;;;;;10409012;28;20028;-61
2021/04/22 16:19:41;;;;;;;;;;;13.80;42.40;;;;;;10410341;28;19925;-61
2021/04/22 16:24:43;;;;;;;;;;;13.90;42.80;;;;;;10416529;28;20019;-61
2021/04/22 16:29:44;;;;;;;;;;;13.80;42.10;;;;;;10431071;28;20054;-62
2021/04/22 16:34:46;;;;;;;;;;;13.80;42.10;;;;;;10449736;28;19960;-62
2021/04/22 16:39:47;;;;;;;;;;;13.80;42.30;;;;;;10449576;28;20028;-61
2021/04/22 16:44:48;;;;;;;;;;;13.70;42.80;;;;;;10449037;28;19960;-61
2021/04/22 16:49:49;;;;;;;;;;;13.60;42.20;;;;;;10441201;28;20185;-61
2021/04/22 16:54:51;;;;;;;;;;;13.40;43.20;;;;;;10407380;28;20044;-61
2021/04/22 16:59:56;;;;;;;;;;;13.30;44.30;;;;;;10418604;28;19931;-61
2021/04/22 17:04:59;;;;;;;;;;;13.40;44.00;;;;;;10448802;28;19925;-61
2021/04/22 17:10:00;;;;;;;;;;;13.20;43.60;;;;;;10410900;28;19933;-61
2021/04/22 17:15:02;;;;;;;;;;;13.10;43.10;;;;;;10406467;28;20336;-61
2021/04/22 17:20:04;;;;;;;;;;;13.10;44.00;;;;;;10406504;28;20381;-62
2021/04/22 17:25:05;;;;;;;;;;;13.10;44.50;;;;;;10406045;28;19929;-61
2021/04/22 17:30:10;;;;;;;;;;;13.00;44.00;;;;;;10406550;28;19932;-61
2021/04/22 17:35:17;;;;;;;;;;;12.90;44.20;;;;;;10407844;28;20392;-61
2021/04/22 17:40:18;;;;;;;;;;;12.70;44.00;;;;;;10407372;28;19964;-61
2021/04/22 17:45:20;;;;;;;;;;;12.50;44.30;;;;;;10406106;28;20368;-61
2021/04/22 17:50:22;;;;;;;;;;;12.40;44.90;;;;;;10406074;28;20015;-61
2021/04/22 17:55:24;;;;;;;;;;;12.30;44.80;;;;;;10405948;28;19931;-61
2021/04/22 18:00:27;;;;;;;;;;;12.00;45.30;;;;;;10406066;28;20008;-61
2021/04/22 18:05:29;;;;;;;;;;;11.90;46.00;;;;;;10405696;28;20000;-61
2021/04/22 18:10:31;;;;;;;;;;;11.60;46.40;;;;;;10405801;28;19929;-61
2021/04/22 18:15:35;;;;;;;;;;;11.40;47.60;;;;;;10403912;28;19968;-61
2021/04/22 18:20:37;;;;;;;;;;;11.20;47.50;;;;;;10404519;28;20009;-61
2021/04/22 18:25:38;;;;;;;;;;;11.00;47.70;;;;;;10404824;28;19936;-70
2021/04/22 18:30:41;;;;;;;;;;;10.90;47.90;;;;;;10405285;28;19984;-70
2021/04/22 18:35:43;;;;;;;;;;;10.70;48.50;;;;;;10404897;28;20008;-70
2021/04/22 18:40:45;;;;;;;;;;;10.50;49.50;;;;;;10403452;28;20019;-70
2021/04/22 18:45:46;;;;;;;;;;;10.30;49.20;;;;;;10403199;28;19968;-70
2021/04/22 18:50:48;;;;;;;;;;;10.20;50.00;;;;;;10404135;28;20004;-70
2021/04/22 18:55:49;;;;;;;;;;;10.00;50.50;;;;;;10404467;28;20056;-70
2021/04/22 19:00:51;;;;;;;;;;;9.90;51.60;;;;;;10403632;28;19967;-70
2021/04/22 19:05:52;;;;;;;;;;;9.70;52.10;;;;;;10402488;28;20301;-70
2021/04/22 19:10:54;;;;;;;;;;;9.50;52.50;;;;;;10404065;28;20019;-70
2021/04/22 19:15:55;;;;;;;;;;;9.40;52.90;;;;;;10416548;28;19936;-70
2021/04/22 19:20:56;;;;;;;;;;;9.30;53.20;;;;;;10400538;28;20024;-70
2021/04/22 19:25:58;;;;;;;;;;;9.20;52.90;;;;;;10397743;28;19975;-70
2021/04/22 19:30:59;;;;;;;;;;;9.20;53.10;;;;;;10399751;28;19971;-70
2021/04/22 19:36:01;;;;;;;;;;;9.20;53.30;;;;;;10397451;28;19971;-70
2021/04/22 19:41:03;;;;;;;;;;;9.20;53.50;;;;;;10402437;28;19929;-70
2021/04/22 19:46:04;;;;;;;;;;;9.10;53.80;;;;;;10403251;28;19931;-69
2021/04/22 19:51:07;;;;;;;;;;;9.00;54.60;;;;;;10405719;28;20032;-70
2021/04/22 19:56:09;;;;;;;;;;;8.90;54.70;;;;;;10410481;28;19925;-69
2021/04/22 20:01:12;;;;;;;;;;;8.90;54.80;;;;;;10409690;28;19932;-70
2021/04/22 20:06:18;;;;;;;;;;;8.80;56.10;;;;;;10409873;28;19968;-70
2021/04/22 20:11:20;;;;;;;;;;;8.70;55.80;;;;;;10409387;28;20012;-70
2021/04/22 20:16:21;;;;;;;;;;;8.60;56.20;;;;;;10408234;28;20008;-70
2021/04/22 20:21:23;;;;;;;;;;;8.50;57.10;;;;;;10409441;28;19931;-70
2021/04/22 20:26:24;;;;;;;;;;;8.50;57.80;;;;;;10409268;28;19972;-70
2021/04/22 20:31:26;;;;;;;;;;;8.30;58.30;;;;;;10408537;28;19975;-70
2021/04/22 20:36:27;;;;;;;;;;;8.10;59.20;;;;;;10407960;28;20273;-69
2021/04/22 20:41:29;;;;;;;;;;;8.00;59.60;;;;;;10408583;28;19997;-69
2021/04/22 20:46:30;;;;;;;;;;;7.90;60.00;;;;;;10407128;28;20028;-69
2021/04/22 20:51:31;;;;;;;;;;;7.80;61.90;;;;;;10407963;28;20053;-69
2021/04/22 20:56:34;;;;;;;;;;;7.50;63.80;;;;;;10408518;28;19980;-69
2021/04/22 21:01:35;;;;;;;;;;;7.30;65.30;;;;;;10405062;28;20754;-69
2021/04/22 21:06:37;;;;;;;;;;;7.10;66.70;;;;;;10407258;28;19983;-69
2021/04/22 21:11:44;;;;;;;;;;;7.10;70.30;;;;;;10407368;28;19976;-69
2021/04/22 21:16:46;;;;;;;;;;;7.00;72.20;;;;;;10406975;28;20020;-69
2021/04/22 21:21:49;;;;;;;;;;;7.00;74.50;;;;;;10406156;28;19925;-69
2021/04/22 21:26:54;;;;;;;;;;;7.00;74.50;;;;;;10406368;28;19976;-69
2021/04/22 21:31:56;;;;;;;;;;;6.90;78.80;;;;;;10405763;28;20382;-69
2021/04/22 21:36:57;;;;;;;;;;;6.80;77.90;;;;;;10405869;28;20381;-69
2021/04/22 21:41:59;;;;;;;;;;;6.60;81.90;;;;;;10405792;28;19925;-69
2021/04/22 21:47:08;;;;;;;;;;;6.50;85.00;;;;;;10406583;28;19929;-69
2021/04/22 21:52:16;;;;;;;;;;;6.30;89.20;;;;;;10406274;28;19929;-69
2021/04/22 21:57:17;;;;;;;;;;;6.30;91.00;;;;;;10406320;28;19959;-69
2021/04/22 22:02:19;;;;;;;;;;;6.20;91.90;;;;;;10405716;28;19925;-69
2021/04/22 22:07:20;;;;;;;;;;;6.00;95.20;;;;;;10405781;28;20310;-69
2021/04/22 22:12:21;;;;;;;;;;;5.80;97.70;;;;;;10405718;28;19925;-69
2021/04/22 22:17:23;;;;;;;;;;;5.70;99.90;;;;;;10405389;28;20012;-69
2021/04/22 22:22:26;;;;;;;;;;;5.70;99.90;;;;;;10404878;28;20023;-69
2021/04/22 22:27:27;;;;;;;;;;;5.60;99.90;;;;;;10405273;28;19931;-69
2021/04/22 22:32:28;;;;;;;;;;;5.50;99.90;;;;;;10405114;28;20024;-69
2021/04/22 22:37:30;;;;;;;;;;;5.40;99.90;;;;;;10404592;28;19933;-69
2021/04/22 22:42:31;;;;;;;;;;;5.30;99.90;;;;;;10404792;28;19925;-69
2021/04/22 22:47:32;;;;;;;;;;;5.20;99.90;;;;;;10404446;28;19929;-69
2021/04/22 22:52:34;;;;;;;;;;;5.10;99.90;;;;;;10404522;28;19925;-69
2021/04/22 22:57:35;;;;;;;;;;;5.00;99.90;;;;;;10405453;28;20011;-69
2021/04/22 23:02:40;;;;;;;;;;;5.00;99.90;;;;;;10432898;28;19984;-69
2021/04/22 23:07:42;;;;;;;;;;;4.90;99.90;;;;;;10403158;28;19928;-69
2021/04/22 23:12:44;;;;;;;;;;;4.90;99.90;;;;;;10402170;28;20431;-69
2021/04/22 23:17:46;;;;;;;;;;;4.80;99.90;;;;;;10402171;28;20015;-69
2021/04/22 23:22:48;;;;;;;;;;;4.70;99.90;;;;;;10402363;28;19925;-69
2021/04/22 23:27:50;;;;;;;;;;;4.60;99.90;;;;;;10408223;28;19936;-69
2021/04/22 23:32:52;;;;;;;;;;;4.50;99.90;;;;;;10410263;28;20292;-70
2021/04/22 23:37:53;;;;;;;;;;;4.40;99.90;;;;;;10408414;28;20377;-69
2021/04/22 23:42:55;;;;;;;;;;;4.30;99.90;;;;;;10408351;28;20016;-69
2021/04/22 23:47:57;;;;;;;;;;;4.30;99.90;;;;;;10408815;28;19976;-69
2021/04/22 23:52:59;;;;;;;;;;;4.20;99.90;;;;;;10422177;28;19929;-69
2021/04/22 23:58:01;;;;;;;;;;;4.20;99.90;;;;;;10408540;28;20004;-69
